Terminal Aerodrome Forecast
Issued by NWS

Home | Current Version | Previous Version | Text Only | Print | Product List | Glossary On
Versions: 1 2 3 4 5 6 7 8 9 10 11 12 13 14 15 16 17 18 19 20 21 22 23 24 25 26 27 28
930
FTAK31 PAFA 200540
TAFAFA
TAF
PAFA 200540Z 2006/2112 VRB03KT P6SM FEW030 SCT100 BKN250
     FM202100 VRB03KT P6SM VCSH BKN050 OVC080
     FM210000 VRB03KT P6SM -SHRA SCT025 BKN040=

USA.gov is the U.S. government's official web portal to all federal, state and local government web resources and services.